createdAt,value
2022-12-17T00:01:18.258Z,101703.81
2022-12-17T00:04:04.107Z,101710.63
2022-12-17T00:06:49.323Z,101713.38
2022-12-17T00:09:34.869Z,101709.63
2022-12-17T00:12:19.860Z,101708.97
2022-12-17T00:15:06.210Z,101714.22
2022-12-17T00:17:51.643Z,101717.84
2022-12-17T00:20:36.871Z,101725.22
2022-12-17T00:23:23.396Z,101719.78
2022-12-17T00:26:09.311Z,101735.16
2022-12-17T00:28:55.043Z,101734.19
2022-12-17T00:31:44.265Z,101735.59
2022-12-17T00:34:29.387Z,101726.31
2022-12-17T00:37:14.537Z,101737.94
2022-12-17T00:39:59.790Z,101739.59
2022-12-17T00:42:45.118Z,101748.75
2022-12-17T00:45:30.474Z,101750.69
2022-12-17T00:48:16.998Z,101759.72
2022-12-17T00:51:02.328Z,101762.34
2022-12-17T00:53:47.519Z,101752.22
2022-12-17T00:56:32.746Z,101764.84
2022-12-17T00:59:18.128Z,101754.44
2022-12-17T01:02:08.794Z,101767.06
2022-12-17T01:04:55.205Z,101771.94
2022-12-17T01:07:42.445Z,101762.78
2022-12-17T01:10:27.630Z,101759.03
2022-12-17T01:13:12.806Z,101768.59
2022-12-17T01:15:58.229Z,101770.97
2022-12-17T01:18:43.391Z,101779.72
2022-12-17T01:21:30.064Z,101785.41
2022-12-17T01:24:11.469Z,101788.31
2022-12-17T01:26:56.774Z,101796.09
2022-12-17T01:29:41.930Z,101792.75
2022-12-17T01:32:27.115Z,101792.88
2022-12-17T01:35:12.467Z,101788.59
2022-12-17T01:37:58.898Z,101791.38
2022-12-17T01:40:44.111Z,101797.03
2022-12-17T01:43:30.666Z,101787.06
2022-12-17T01:46:16.481Z,101806.50
2022-12-17T01:49:04.016Z,101807.47
2022-12-17T01:51:49.208Z,101807.34
2022-12-17T01:54:36.226Z,101809.38
2022-12-17T01:57:22.620Z,101802.06
2022-12-17T02:00:10.019Z,101807.47
2022-12-17T02:02:55.258Z,101809.81
2022-12-17T02:05:45.281Z,101816.91
2022-12-17T02:08:38.738Z,101818.00
2022-12-17T02:11:32.100Z,101820.78
2022-12-17T02:14:27.371Z,101820.78
2022-12-17T02:17:15.618Z,101815.25
2022-12-17T02:20:05.587Z,101811.88
2022-12-17T02:23:00.371Z,101814.53
2022-12-17T02:25:52.996Z,101821.88
2022-12-17T02:28:39.325Z,101818.28
2022-12-17T02:31:24.608Z,101824.09
2022-12-17T02:34:12.678Z,101815.06
2022-12-17T02:36:58.046Z,101817.03
2022-12-17T02:39:43.267Z,101817.44
2022-12-17T02:42:37.886Z,101814.94
2022-12-17T02:45:25.778Z,101814.69
2022-12-17T02:48:25.476Z,101816.47
2022-12-17T02:51:10.830Z,101813.53
2022-12-17T02:54:01.026Z,101819.78
2022-12-17T02:56:46.315Z,101826.72
2022-12-17T02:59:31.526Z,101824.53
2022-12-17T03:02:18.080Z,101830.88
2022-12-17T03:05:06.626Z,101825.63
2022-12-17T03:08:04.678Z,101831.72
2022-12-17T03:10:50.045Z,101831.16
2022-12-17T03:13:40.889Z,101828.22
2022-12-17T03:16:31.477Z,101827.69
2022-12-17T03:19:22.593Z,101840.63
2022-12-17T03:22:07.750Z,101835.47
2022-12-17T03:24:53.209Z,101834.09
2022-12-17T03:27:38.376Z,101834.94
2022-12-17T03:30:24.315Z,101839.22
2022-12-17T03:33:09.550Z,101849.50
2022-12-17T03:35:55.935Z,101839.50
2022-12-17T03:38:41.340Z,101842.72
2022-12-17T03:41:26.595Z,101837.28
2022-12-17T03:44:11.666Z,101831.88
2022-12-17T03:46:56.672Z,101837.69
2022-12-17T03:49:41.807Z,101839.91
2022-12-17T03:52:28.518Z,101842.84
2022-12-17T03:55:12.898Z,101842.28
2022-12-17T03:57:58.314Z,101834.78
2022-12-17T04:00:43.482Z,101841.00
2022-12-17T04:03:28.810Z,101843.41
2022-12-17T04:06:14.078Z,101848.53
2022-12-17T04:09:00.670Z,101847.69
2022-12-17T04:11:45.854Z,101842.72
2022-12-17T04:14:31.085Z,101844.78
2022-12-17T04:17:16.411Z,101850.19
2022-12-17T04:20:01.546Z,101844.50
2022-12-17T04:22:46.880Z,101849.22
2022-12-17T04:25:33.418Z,101845.59
2022-12-17T04:28:18.575Z,101849.09
2022-12-17T04:31:03.922Z,101849.94
2022-12-17T04:33:49.170Z,101857.13
2022-12-17T04:36:34.355Z,101861.56
2022-12-17T04:39:19.526Z,101859.38
2022-12-17T04:42:05.959Z,101864.91
2022-12-17T04:44:51.198Z,101865.59
2022-12-17T04:47:36.327Z,101864.22
2022-12-17T04:50:21.582Z,101865.44
2022-12-17T04:53:06.587Z,101866.00
2022-12-17T04:55:51.846Z,101859.34
2022-12-17T04:58:38.462Z,101861.00
2022-12-17T05:01:23.931Z,101862.09
2022-12-17T05:04:09.046Z,101869.19
2022-12-17T05:06:54.211Z,101876.69
2022-12-17T05:09:39.332Z,101869.75
2022-12-17T05:12:24.587Z,101869.31
2022-12-17T05:15:10.886Z,101886.38
2022-12-17T05:17:56.239Z,101882.63
2022-12-17T05:20:40.732Z,101880.00
2022-12-17T05:23:26.467Z,101882.34
2022-12-17T05:26:16.263Z,101895.94
2022-12-17T05:29:01.545Z,101891.75
2022-12-17T05:31:47.919Z,101892.44
2022-12-17T05:34:33.154Z,101891.50
2022-12-17T05:37:18.327Z,101887.59
2022-12-17T05:40:07.797Z,101894.94
2022-12-17T05:42:55.786Z,101885.75
2022-12-17T05:45:41.063Z,101887.00
2022-12-17T05:48:27.617Z,101902.53
2022-12-17T05:51:12.867Z,101902.53
2022-12-17T05:53:58.034Z,101903.53
2022-12-17T05:56:43.348Z,101914.44
2022-12-17T05:59:28.544Z,101913.03
2022-12-17T06:02:14.396Z,101920.81
2022-12-17T06:05:02.514Z,101919.41
2022-12-17T06:07:48.219Z,101916.94
2022-12-17T06:10:33.590Z,101924.28
2022-12-17T06:13:18.871Z,101921.91
2022-12-17T06:16:07.038Z,101934.25
2022-12-17T06:18:52.326Z,101937.16
2022-12-17T06:21:38.861Z,101933.81
2022-12-17T06:24:24.538Z,101930.47
2022-12-17T06:27:09.648Z,101927.97
2022-12-17T06:29:54.803Z,101935.88
2022-12-17T06:32:41.516Z,101940.31
2022-12-17T06:35:27.516Z,101943.66
2022-12-17T06:38:17.082Z,101948.22
2022-12-17T06:41:02.249Z,101955.41
2022-12-17T06:43:47.526Z,101954.47
2022-12-17T06:46:44.190Z,101961.63
2022-12-17T06:49:29.208Z,101969.81
2022-12-17T06:52:14.357Z,101960.81
2022-12-17T06:55:00.911Z,101967.19
2022-12-17T06:57:50.170Z,101968.41
2022-12-17T07:00:35.510Z,101980.47
2022-12-17T07:03:20.807Z,101982.50
2022-12-17T07:06:06.028Z,101991.38
2022-12-17T07:08:51.209Z,101987.22
2022-12-17T07:11:38.860Z,101990.56
2022-12-17T07:14:24.272Z,102001.22
2022-12-17T07:17:09.520Z,102000.50
2022-12-17T07:19:54.708Z,102003.66
2022-12-17T07:22:39.896Z,102008.91
2022-12-17T07:25:25.597Z,102016.25
2022-12-17T07:28:15.154Z,102015.09
2022-12-17T07:31:00.442Z,102014.00
2022-12-17T07:33:45.680Z,102011.75
2022-12-17T07:36:30.075Z,102018.09
2022-12-17T07:39:15.379Z,102018.66
2022-12-17T07:42:00.626Z,102028.38
2022-12-17T07:44:46.843Z,102026.13
2022-12-17T07:47:32.000Z,102029.84
2022-12-17T07:50:17.262Z,102032.09
2022-12-17T07:53:02.471Z,102040.13
2022-12-17T07:55:47.672Z,102030.56
2022-12-17T07:58:33.016Z,102045.50
2022-12-17T08:01:19.969Z,102056.31
2022-12-17T08:04:05.158Z,102053.53
2022-12-17T08:06:50.368Z,102056.78
2022-12-17T08:09:35.496Z,102058.94
2022-12-17T08:12:20.866Z,102061.31
2022-12-17T08:15:06.030Z,102063.81
2022-12-17T08:17:52.568Z,102062.97
2022-12-17T08:20:37.876Z,102068.31
2022-12-17T08:23:23.766Z,102057.78
2022-12-17T08:26:17.386Z,102068.44
2022-12-17T08:29:02.775Z,102072.56
2022-12-17T08:31:48.049Z,102088.25
2022-12-17T08:34:34.488Z,102083.56
2022-12-17T08:37:19.892Z,102085.19
2022-12-17T08:40:05.153Z,102084.53
2022-12-17T08:42:50.507Z,102086.09
2022-12-17T08:45:35.818Z,102089.16
2022-12-17T08:48:22.022Z,102092.81
2022-12-17T08:51:08.382Z,102087.53
2022-12-17T08:53:53.578Z,102104.66
2022-12-17T08:56:38.785Z,102101.28
2022-12-17T08:59:23.923Z,102098.66
2022-12-17T09:02:09.376Z,102100.41
2022-12-17T09:05:03.002Z,102104.25
2022-12-17T09:07:49.544Z,102111.50
2022-12-17T09:10:34.762Z,102103.22
2022-12-17T09:13:20.532Z,102111.84
2022-12-17T09:16:10.042Z,102108.88
2022-12-17T09:18:55.295Z,102107.78
2022-12-17T09:21:40.503Z,102108.75
2022-12-17T09:24:28.008Z,102103.34
2022-12-17T09:27:13.183Z,102108.81
2022-12-17T09:29:58.446Z,102103.56
2022-12-17T09:32:43.667Z,102109.78
2022-12-17T09:35:28.951Z,102104.69
2022-12-17T09:38:14.690Z,102114.22
2022-12-17T09:41:05.095Z,102113.84
2022-12-17T09:43:58.883Z,102116.03
2022-12-17T09:46:48.594Z,102110.94
2022-12-17T09:49:36.837Z,102113.03
2022-12-17T09:52:26.371Z,102125.72
2022-12-17T09:55:11.506Z,102117.81
2022-12-17T09:57:57.944Z,102121.28
2022-12-17T10:00:44.547Z,102124.00
2022-12-17T10:03:31.905Z,102119.50
2022-12-17T10:06:22.796Z,102122.44
2022-12-17T10:09:12.621Z,102124.34
2022-12-17T10:11:57.839Z,102122.56
2022-12-17T10:14:44.356Z,102129.97
2022-12-17T10:17:33.416Z,102133.56
2022-12-17T10:20:18.602Z,102128.50
2022-12-17T10:23:05.523Z,102132.06
2022-12-17T10:25:50.751Z,102139.97
2022-12-17T10:28:37.176Z,102134.44
2022-12-17T10:31:28.605Z,102141.31
2022-12-17T10:34:15.090Z,102145.34
2022-12-17T10:37:03.757Z,102143.25
2022-12-17T10:39:49.011Z,102137.72
2022-12-17T10:42:38.430Z,102137.44
2022-12-17T10:45:38.494Z,102143.59
2022-12-17T10:48:36.072Z,102150.03
2022-12-17T10:51:17.930Z,102146.56
2022-12-17T10:54:07.799Z,102145.03
2022-12-17T10:56:52.630Z,102154.78
2022-12-17T10:59:49.060Z,102149.91
2022-12-17T11:02:35.899Z,102145.47
2022-12-17T11:05:28.515Z,102133.31
2022-12-17T11:08:13.616Z,102141.19
2022-12-17T11:10:59.973Z,102147.94
2022-12-17T11:13:49.297Z,102138.78
2022-12-17T11:16:39.559Z,102143.47
2022-12-17T11:19:37.080Z,102139.78
2022-12-17T11:22:26.182Z,102141.88
2022-12-17T11:25:26.395Z,102143.28
2022-12-17T11:28:17.622Z,102136.59
2022-12-17T11:31:07.051Z,102143.56
2022-12-17T11:33:55.026Z,102140.94
2022-12-17T11:36:45.396Z,102150.22
2022-12-17T11:39:35.938Z,102142.34
2022-12-17T11:42:25.043Z,102142.22
2022-12-17T11:45:14.262Z,102142.22
2022-12-17T11:48:04.460Z,102135.97
2022-12-17T11:50:54.282Z,102139.03
2022-12-17T11:53:53.227Z,102140.56
2022-12-17T11:56:43.613Z,102142.78
2022-12-17T11:59:34.747Z,102137.78
2022-12-17T12:02:40.014Z,102139.59
2022-12-17T12:05:35.959Z,102141.28
2022-12-17T12:08:24.554Z,102145.41
2022-12-17T12:11:16.683Z,102145.16
2022-12-17T12:14:06.782Z,102142.78
2022-12-17T12:16:54.775Z,102141.16
2022-12-17T12:19:45.214Z,102137.53
2022-12-17T12:22:35.560Z,102146.00
2022-12-17T12:25:33.901Z,102152.69
2022-12-17T12:28:25.235Z,102147.94
2022-12-17T12:31:16.844Z,102148.38
2022-12-17T12:34:07.139Z,102141.72
2022-12-17T12:36:53.143Z,102141.13
2022-12-17T12:39:42.825Z,102150.03
2022-12-17T12:42:31.687Z,102152.84
2022-12-17T12:45:21.278Z,102149.34
2022-12-17T12:48:13.686Z,102156.03
2022-12-17T12:51:09.174Z,102162.28
2022-12-17T12:53:54.426Z,102151.16
2022-12-17T12:56:47.253Z,102159.81
2022-12-17T12:59:43.444Z,102158.41
2022-12-17T13:02:36.773Z,102161.19
2022-12-17T13:05:23.873Z,102163.53
2022-12-17T13:08:02.782Z,102157.69
2022-12-17T13:10:32.503Z,102160.31
2022-12-17T13:13:01.678Z,102168.41
2022-12-17T13:15:36.084Z,102155.88
2022-12-17T13:18:16.992Z,102156.75
2022-12-17T13:20:58.568Z,102150.47
2022-12-17T13:23:34.882Z,102163.13
2022-12-17T13:26:22.171Z,102160.22
2022-12-17T13:29:04.946Z,102164.22
2022-12-17T13:31:44.894Z,102158.38
2022-12-17T13:34:18.058Z,102158.38
2022-12-17T13:36:52.039Z,102157.00
2022-12-17T13:39:38.952Z,102158.81
2022-12-17T13:42:06.595Z,102163.53
2022-12-17T13:44:39.858Z,102163.56
2022-12-17T13:47:20.953Z,102167.84
2022-12-17T13:50:24.547Z,102175.66
2022-12-17T13:52:40.651Z,102174.81
2022-12-17T13:55:10.546Z,102178.13
2022-12-17T13:57:38.805Z,102182.88
2022-12-17T14:00:07.326Z,102173.72
2022-12-17T14:02:38.940Z,102179.41
2022-12-17T14:05:09.111Z,102180.25
2022-12-17T14:07:40.816Z,102182.59
2022-12-17T14:10:15.906Z,102182.03
2022-12-17T14:12:42.527Z,102192.91
2022-12-17T14:15:21.302Z,102193.84
2022-12-17T14:17:49.856Z,102198.69
2022-12-17T14:20:19.453Z,102198.69
2022-12-17T14:22:51.870Z,102192.03
2022-12-17T14:25:21.474Z,102212.03
2022-12-17T14:27:55.086Z,102215.38
2022-12-17T14:30:24.762Z,102216.78
2022-12-17T14:32:52.389Z,102210.09
2022-12-17T14:35:28.383Z,102214.69
2022-12-17T14:37:57.502Z,102207.44
2022-12-17T14:40:26.369Z,102207.44
2022-12-17T14:42:59.113Z,102217.03
2022-12-17T14:45:27.828Z,102215.38
2022-12-17T14:47:56.707Z,102216.22
2022-12-17T14:50:30.879Z,102218.69
2022-12-17T14:53:00.852Z,102225.94
2022-12-17T14:55:34.792Z,102219.66
2022-12-17T14:58:20.346Z,102222.56
2022-12-17T15:00:51.390Z,102229.22
2022-12-17T15:03:22.072Z,102227.84
2022-12-17T15:05:53.151Z,102227.72
2022-12-17T15:08:22.310Z,102234.34
2022-12-17T15:10:49.982Z,102237.78
2022-12-17T15:13:17.432Z,102224.63
2022-12-17T15:15:44.940Z,102232.06
2022-12-17T15:18:12.483Z,102237.75
2022-12-17T15:20:40.122Z,102231.34
2022-12-17T15:23:12.896Z,102232.03
2022-12-17T15:25:46.574Z,102230.31
2022-12-17T15:28:14.430Z,102235.44
2022-12-17T15:30:48.266Z,102242.41
2022-12-17T15:33:15.949Z,102230.31
2022-12-17T15:35:43.774Z,102233.94
2022-12-17T15:38:12.106Z,102247.25
2022-12-17T15:40:41.345Z,102248.00
2022-12-17T15:43:12.816Z,102246.97
2022-12-17T15:45:41.486Z,102250.19
2022-12-17T15:48:09.388Z,102253.28
2022-12-17T15:50:37.317Z,102250.56
2022-12-17T15:53:04.889Z,102257.91
2022-12-17T15:55:33.125Z,102257.34
2022-12-17T15:58:05.313Z,102259.78
2022-12-17T16:00:32.782Z,102259.97
2022-12-17T16:03:01.366Z,102256.75
2022-12-17T16:05:29.060Z,102259.00
2022-12-17T16:07:58.828Z,102267.22
2022-12-17T16:10:26.500Z,102261.97
2022-12-17T16:12:53.966Z,102262.31
2022-12-17T16:15:22.943Z,102262.53
2022-12-17T16:17:50.389Z,102270.59
2022-12-17T16:20:18.172Z,102264.47
2022-12-17T16:22:45.660Z,102264.84
2022-12-17T16:25:13.417Z,102259.66
2022-12-17T16:27:40.866Z,102262.81
2022-12-17T16:30:10.963Z,102258.75
2022-12-17T16:32:39.774Z,102261.72
2022-12-17T16:35:07.891Z,102264.47
2022-12-17T16:37:35.344Z,102266.66
2022-12-17T16:40:02.942Z,102264.34
2022-12-17T16:42:30.581Z,102273.59
2022-12-17T16:44:58.057Z,102272.22
2022-12-17T16:47:25.721Z,102269.84
2022-12-17T16:49:54.527Z,102278.22
2022-12-17T16:52:22.036Z,102273.75
2022-12-17T16:54:49.496Z,102276.78
2022-12-17T16:57:16.934Z,102279.81
2022-12-17T16:59:44.403Z,102284.50
2022-12-17T17:02:14.373Z,102277.72
2022-12-17T17:04:41.926Z,102277.91
2022-12-17T17:07:10.714Z,102275.59
2022-12-17T17:09:38.691Z,102273.69
2022-12-17T17:12:08.346Z,102274.81
2022-12-17T17:14:36.049Z,102267.63
2022-12-17T17:17:03.519Z,102274.00
2022-12-17T17:19:30.972Z,102281.13
2022-12-17T17:21:58.430Z,102289.22
2022-12-17T17:24:27.231Z,102289.75
2022-12-17T17:26:55.865Z,102288.75
2022-12-17T17:29:23.343Z,102287.91
2022-12-17T17:32:09.740Z,102287.50
2022-12-17T17:34:39.478Z,102291.06
2022-12-17T17:37:06.951Z,102295.22
2022-12-17T17:39:35.742Z,102292.13
2022-12-17T17:42:03.886Z,102294.72
2022-12-17T17:44:31.362Z,102302.81
2022-12-17T17:46:58.876Z,102311.31
2022-12-17T17:49:26.433Z,102310.22
2022-12-17T17:52:10.715Z,102306.56
2022-12-17T17:54:40.353Z,102310.53
2022-12-17T17:57:08.149Z,102310.34
2022-12-17T17:59:35.625Z,102316.16
2022-12-17T18:02:03.890Z,102322.47
2022-12-17T18:04:32.346Z,102318.97
2022-12-17T18:07:24.251Z,102322.03
2022-12-17T18:09:48.598Z,102327.13
2022-12-17T18:12:33.950Z,102335.94
2022-12-17T18:15:18.415Z,102329.91
2022-12-17T18:17:48.038Z,102333.31
2022-12-17T18:20:15.758Z,102329.13
2022-12-17T18:22:43.452Z,102338.13
2022-12-17T18:25:12.255Z,102347.63
2022-12-17T18:27:39.757Z,102337.34
2022-12-17T18:30:08.078Z,102341.00
2022-12-17T18:32:35.580Z,102339.84
2022-12-17T18:35:03.082Z,102347.56
2022-12-17T18:37:31.012Z,102355.25
2022-12-17T18:39:58.485Z,102355.44
2022-12-17T18:42:44.840Z,102358.47
2022-12-17T18:45:13.476Z,102361.00
2022-12-17T18:47:42.376Z,102357.78
2022-12-17T18:50:10.735Z,102361.25
2022-12-17T18:52:38.203Z,102370.22
2022-12-17T18:55:06.589Z,102373.25
2022-12-17T18:57:35.459Z,102390.38
2022-12-17T19:00:03.784Z,102386.44
2022-12-17T19:02:31.308Z,102384.88
2022-12-17T19:04:58.839Z,102392.94
2022-12-17T19:07:26.318Z,102393.31
2022-12-17T19:09:53.763Z,102393.56
2022-12-17T19:12:21.207Z,102387.91
2022-12-17T19:14:49.998Z,102397.38
2022-12-17T19:17:17.555Z,102402.66
2022-12-17T19:19:44.982Z,102399.78
2022-12-17T19:22:12.482Z,102402.88
2022-12-17T19:24:39.926Z,102412.47
2022-12-17T19:27:07.367Z,102404.09
2022-12-17T19:29:34.856Z,102405.31
2022-12-17T19:32:03.845Z,102414.03
2022-12-17T19:34:32.276Z,102397.28
2022-12-17T19:36:59.732Z,102401.13
2022-12-17T19:39:27.230Z,102403.03
2022-12-17T19:41:54.687Z,102417.63
2022-12-17T19:44:22.491Z,102403.84
2022-12-17T19:46:49.937Z,102409.97
2022-12-17T19:49:18.788Z,102411.28
2022-12-17T19:51:46.282Z,102412.50
2022-12-17T19:54:14.937Z,102409.63
2022-12-17T19:56:43.822Z,102407.91
2022-12-17T19:59:12.516Z,102410.31
2022-12-17T20:01:43.775Z,102411.16
2022-12-17T20:04:12.680Z,102419.41
2022-12-17T20:06:41.460Z,102421.47
2022-12-17T20:09:08.919Z,102419.56
2022-12-17T20:11:36.932Z,102417.53
2022-12-17T20:14:07.217Z,102411.06
2022-12-17T20:16:36.338Z,102410.81
2022-12-17T20:19:06.700Z,102401.97
2022-12-17T20:21:34.450Z,102405.94
2022-12-17T20:24:03.381Z,102418.34
2022-12-17T20:26:30.989Z,102417.75
2022-12-17T20:28:59.151Z,102416.81
2022-12-17T20:31:26.755Z,102423.38
2022-12-17T20:33:54.247Z,102414.41
2022-12-17T20:36:22.858Z,102418.13
2022-12-17T20:38:50.511Z,102414.31
2022-12-17T20:41:20.563Z,102423.66
2022-12-17T20:43:48.480Z,102420.88
2022-12-17T20:46:16.431Z,102432.13
2022-12-17T20:48:45.019Z,102426.75
2022-12-17T20:51:14.032Z,102434.66
2022-12-17T20:53:41.586Z,102426.97
2022-12-17T20:56:11.484Z,102436.56
2022-12-17T20:58:41.334Z,102426.50
2022-12-17T21:01:11.720Z,102421.38
2022-12-17T21:03:39.607Z,102423.16
2022-12-17T21:06:09.899Z,102426.88
2022-12-17T21:08:38.223Z,102432.88
2022-12-17T21:11:06.808Z,102428.78
2022-12-17T21:13:34.871Z,102444.25
2022-12-17T21:16:06.105Z,102435.59
2022-12-17T21:18:34.451Z,102440.72
2022-12-17T21:21:03.684Z,102440.28
2022-12-17T21:23:31.773Z,102434.44
2022-12-17T21:26:04.718Z,102443.75
2022-12-17T21:28:41.454Z,102449.97
2022-12-17T21:31:17.947Z,102442.44
2022-12-17T21:33:45.996Z,102442.66
2022-12-17T21:36:14.088Z,102447.69
2022-12-17T21:38:42.498Z,102447.22
2022-12-17T21:41:11.917Z,102456.06
2022-12-17T21:43:40.324Z,102464.09
2022-12-17T21:46:08.575Z,102473.28
2022-12-17T21:48:41.903Z,102476.28
2022-12-17T21:51:12.846Z,102479.72
2022-12-17T21:53:43.392Z,102478.06
2022-12-17T21:56:12.962Z,102476.28
2022-12-17T21:58:41.823Z,102465.50
2022-12-17T22:01:18.215Z,102471.84
2022-12-17T22:03:48.772Z,102472.03
2022-12-17T22:06:24.855Z,102472.03
2022-12-17T22:09:01.815Z,102474.28
2022-12-17T22:11:38.662Z,102482.03
2022-12-17T22:14:16.976Z,102477.94
2022-12-17T22:16:48.871Z,102494.00
2022-12-17T22:19:22.225Z,102496.78
2022-12-17T22:21:50.958Z,102494.19
2022-12-17T22:24:21.042Z,102493.91
2022-12-17T22:26:49.483Z,102493.09
2022-12-17T22:29:37.324Z,102505.16
2022-12-17T22:32:23.875Z,102489.31
2022-12-17T22:35:59.786Z,102497.56
2022-12-17T22:42:11.705Z,102496.38
2022-12-17T22:44:31.624Z,102501.16
2022-12-17T22:44:44.417Z,102504.00
2022-12-17T22:46:17.882Z,102501.94
2022-12-17T22:48:45.470Z,102501.78
2022-12-17T22:51:23.604Z,102504.47
2022-12-17T22:53:57.608Z,102505.59
2022-12-17T22:56:42.854Z,102495.72
2022-12-17T22:59:16.186Z,102493.06
2022-12-17T23:01:43.797Z,102498.53
2022-12-17T23:04:13.233Z,102493.84
2022-12-17T23:06:42.676Z,102503.25
2022-12-17T23:09:10.200Z,102496.06
2022-12-17T23:11:37.685Z,102493.28
2022-12-17T23:14:07.567Z,102494.00
2022-12-17T23:16:35.067Z,102494.63
2022-12-17T23:19:03.175Z,102497.66
2022-12-17T23:21:30.659Z,102489.97
2022-12-17T23:23:59.723Z,102481.06
2022-12-17T23:26:28.920Z,102485.72
2022-12-17T23:28:58.311Z,102477.31
2022-12-17T23:31:27.179Z,102489.47
2022-12-17T23:33:54.777Z,102497.47
2022-12-17T23:36:24.050Z,102492.38
2022-12-17T23:38:52.263Z,102488.69
2022-12-17T23:41:23.211Z,102490.47
2022-12-17T23:43:51.127Z,102490.09
2022-12-17T23:46:20.531Z,102490.19
2022-12-17T23:48:48.920Z,102485.44
2022-12-17T23:51:18.638Z,102492.47
2022-12-17T23:53:46.263Z,102489.19
2022-12-17T23:56:15.615Z,102497.94
2022-12-17T23:58:45.752Z,102496.47
